Nearby METAR Reports

Actuele Vliegveldwaarnemingen NL (METAR).Zie KNMI uitleg METAR hier

EHAM - Amsterdam/Schiph, Netherlands
Distance from station: ONO 18km
Updated: 18/01/2020 21:25
Nearby showers, Gedeeltelijk bewolkt
Nearby showers, Gedeeltelijk bewolkt
 Wind van WNW
Wind: WNW 13 km/h
Temperatuur: 4°C
Wind Chill: 1°C
Dauwpunt: 2°C
Vochtigheid: 87%
Barometer: 1028 hPa
Overzicht: Nearby Showers
Clouds: Gedeeltelijk bewolkt
Visibility: 10 km
Cloud details: Few Clouds 732 m
Gedeeltelijk bewolkt 1280 m
2020/01/18 20:25 EHAM 182025Z 30007KT 9999 VCSH FEW024TCU SCT042 04/02 Q1028 NOSIG
EHKD - DE KOOY/DE KOOY
Updated: 18/01/2020 21:43
Meestal bewolkt
Meestal bewolkt
 Wind van NW
Wind: NW 20 km/h
Temperatuur: 6°C
Wind Chill: 2°C
Dauwpunt: 2°C
Vochtigheid: 76%
Barometer: 1028 hPa
Clouds: Meestal bewolkt
Visibility: 10 km
Cloud details: Few Clouds 488 m
Gedeeltelijk bewolkt 732 m
Meestal bewolkt 945 m
2020/01/18 20:43 EHKD 182043Z AUTO 31011KT 280V340 9999 FEW016CB SCT024 BKN031 06/02 Q1028 WHT
 
EHLW - LEEUWARDEN/LEEUWARDEN
Updated: 18/01/2020 21:44
Meestal bewolkt
Meestal bewolkt
 Wind van NW
Wind: NW 24 km/h
Temperatuur: 5°C
Wind Chill: 1°C
Dauwpunt: 2°C
Vochtigheid: 81%
Barometer: 1027 hPa
Clouds: Meestal bewolkt
Visibility: 10 km
Cloud details: Few Clouds 457 m
Gedeeltelijk bewolkt 792 m
Meestal bewolkt 1189 m
2020/01/18 20:44 EHLW 182044Z AUTO 32013KT 290V360 9999 FEW015CB SCT026 BKN039 05/02 Q1027 BLU
EHVK - VOLKEL/VOLKEL
Updated: 18/01/2020 21:25
Gedeeltelijk bewolkt
Gedeeltelijk bewolkt
 Wind van WZW
Wind: WZW 9 km/h
Temperatuur: 3°C
Wind Chill: 0°C
Dauwpunt: 2°C
Vochtigheid: 93%
Barometer: 1029 hPa
Clouds: Gedeeltelijk bewolkt
Visibility: 10 km
Cloud details: Few Clouds 671 m
Gedeeltelijk bewolkt 792 m
2020/01/18 20:25 EHVK 182025Z AUTO 25005KT 9999 FEW022 SCT026 03/02 Q1029 BLU
 
EHFS - VLISSINGEN
Updated: 18/01/2020 21:25
Zwaar bewolkt
Zwaar bewolkt
 Wind van NW
Wind: NW 13 km/h
Temperatuur: 6°C
Wind Chill: 3°C
Dauwpunt: 2°C
Vochtigheid: 76%
Barometer: 1030 hPa
Clouds: Zwaar bewolkt
Visibility: 10 km
Cloud details: Few Clouds 914 m
Meestal bewolkt 1128 m
Zwaar bewolkt 1250 m
2020/01/18 20:25 EHFS 182025Z AUTO 32007KT 290V350 9999 FEW030/// BKN037/// OVC041/// 06/02 Q1030
EHEH - EINDHOVEN/EINDHOVEN
Updated: 18/01/2020 21:25
Helder
Helder
 Wind van WZW
Wind: WZW 9 km/h
Temperatuur: 2°C
Wind Chill: -1°C
Dauwpunt: 1°C
Vochtigheid: 93%
Barometer: 1029 hPa
Clouds: Helder
Visibility: 10 km
2020/01/18 20:25 EHEH 182025Z AUTO 25005KT 9999 NCD 02/01 Q1029 BLU 26007KT 9999 FEW023 TEMPO SCT023 BKN030
 
EHGR - GILZE-RIJEN/GILZE-RIJEN
Updated: 18/01/2020 21:44
Gedeeltelijk bewolkt
Gedeeltelijk bewolkt
 Wind van W
Wind: W 7 km/h
Temperatuur: 2°C
Wind Chill: 0°C
Dauwpunt: 1°C
Vochtigheid: 93%
Barometer: 1029 hPa
Clouds: Gedeeltelijk bewolkt
Visibility: 10 km
Cloud details: Few Clouds 457 m
Gedeeltelijk bewolkt 4267 m
2020/01/18 20:44 EHGR 182044Z AUTO 26004KT 9999 FEW015CB SCT140 02/01 Q1029 BLU
EHDL - ARNHEM/DEELEN
Updated: 18/01/2020 21:25
Meestal bewolkt
Meestal bewolkt
 Wind van W
Wind: W 6 km/h
Temperatuur: 1°C
Dauwpunt: 0°C
Vochtigheid: 93%
Barometer: 1028 hPa
Clouds: Meestal bewolkt
Visibility: 10 km
Cloud details: Few Clouds 701 m
Meestal bewolkt 853 m
Meestal bewolkt 1067 m
2020/01/18 20:25 EHDL 182025Z AUTO 27003KT 200V350 9999 FEW023 BKN028 BKN035 01/00 Q1028 BLU
 
EHBK - MAASTRICHT/MAASTRICHT-AACHEN
Updated: 18/01/2020 21:25
Few Clouds
Few Clouds
 Wind van W
Wind: W 7 km/h
Temperatuur: 3°C
Wind Chill: 1°C
Dauwpunt: 0°C
Vochtigheid: 81%
Barometer: 1029 hPa
Clouds: Few Clouds
Visibility: 10 km
Cloud details: Few Clouds 1036 m
2020/01/18 20:25 EHBK 182025Z AUTO 27004KT 240V310 9999 FEW034 03/00 Q1029 NOSIG